createdAt,value
2017-11-09T00:02:03.223Z,75.50
2017-11-09T00:04:36.466Z,75.90
2017-11-09T00:07:03.944Z,76.20
2017-11-09T00:09:31.412Z,76.20
2017-11-09T00:11:58.888Z,76.30
2017-11-09T00:14:26.355Z,76.70
2017-11-09T00:16:54.624Z,76.70
2017-11-09T00:19:22.091Z,76.70
2017-11-09T00:21:50.333Z,76.60
2017-11-09T00:24:17.802Z,76.60
2017-11-09T00:26:45.433Z,76.60
2017-11-09T00:29:12.891Z,76.90
2017-11-09T00:31:40.368Z,77.00
2017-11-09T00:34:07.836Z,77.00
2017-11-09T00:36:35.312Z,77.10
2017-11-09T00:39:03.624Z,76.10
2017-11-09T00:41:31.104Z,76.00
2017-11-09T00:43:58.578Z,75.80
2017-11-09T00:46:26.142Z,75.70
2017-11-09T00:48:53.606Z,75.90
2017-11-09T00:51:21.067Z,75.90
2017-11-09T00:53:49.307Z,75.90
2017-11-09T00:56:16.774Z,75.80
2017-11-09T00:58:44.250Z,76.20
2017-11-09T01:01:11.711Z,76.80
2017-11-09T01:03:39.266Z,76.10
2017-11-09T01:06:06.730Z,76.30
2017-11-09T01:08:34.979Z,76.60
2017-11-09T01:11:02.448Z,76.60
2017-11-09T01:13:31.420Z,77.10
2017-11-09T01:15:58.883Z,77.10
2017-11-09T01:18:26.360Z,77.50
2017-11-09T01:20:53.828Z,77.50
2017-11-09T01:23:22.063Z,77.40
2017-11-09T01:25:49.549Z,77.20
2017-11-09T01:28:17.014Z,77.00
2017-11-09T01:30:45.296Z,77.30
2017-11-09T01:33:13.528Z,77.30
2017-11-09T01:35:41.007Z,77.20
2017-11-09T01:38:08.507Z,77.40
2017-11-09T01:40:36.028Z,77.10
2017-11-09T01:43:03.489Z,77.00
2017-11-09T01:45:31.722Z,76.70
2017-11-09T01:47:59.177Z,76.60
2017-11-09T01:50:26.647Z,76.50
2017-11-09T01:52:54.110Z,76.60
2017-11-09T01:55:21.583Z,76.70
2017-11-09T01:57:49.129Z,76.60
2017-11-09T02:00:16.648Z,76.40
2017-11-09T02:02:44.102Z,76.30
2017-11-09T02:05:11.600Z,76.20
2017-11-09T02:07:39.161Z,76.50
2017-11-09T02:10:06.630Z,76.70
2017-11-09T02:12:34.954Z,76.90
2017-11-09T02:15:02.419Z,76.80
2017-11-09T02:17:29.893Z,76.90
2017-11-09T02:19:57.358Z,76.80
2017-11-09T02:22:24.829Z,76.60
2017-11-09T02:24:53.101Z,76.90
2017-11-09T02:27:20.654Z,76.90
2017-11-09T02:29:48.110Z,77.10
2017-11-09T02:32:15.585Z,77.20
2017-11-09T02:34:43.131Z,77.30
2017-11-09T02:37:10.599Z,77.70
2017-11-09T02:39:38.053Z,77.70
2017-11-09T02:42:05.598Z,77.30
2017-11-09T02:44:33.054Z,77.20
2017-11-09T02:47:00.618Z,77.50
2017-11-09T02:49:28.080Z,77.30
2017-11-09T02:51:55.633Z,76.90
2017-11-09T02:54:29.086Z,77.10
2017-11-09T02:56:56.589Z,77.30
2017-11-09T02:59:24.160Z,77.40
2017-11-09T03:01:52.399Z,77.60
2017-11-09T03:04:19.937Z,77.40
2017-11-09T03:06:47.433Z,77.60
2017-11-09T03:09:14.898Z,77.50
2017-11-09T03:11:42.352Z,77.30
2017-11-09T03:14:09.807Z,77.40
2017-11-09T03:16:37.358Z,77.10
2017-11-09T03:19:04.826Z,77.20
2017-11-09T03:21:32.277Z,77.10
2017-11-09T03:23:59.745Z,76.70
2017-11-09T03:26:27.217Z,76.90
2017-11-09T03:28:55.446Z,77.00
2017-11-09T03:31:22.930Z,76.90
2017-11-09T03:33:50.402Z,77.00
2017-11-09T03:36:18.649Z,77.60
2017-11-09T03:38:46.118Z,77.60
2017-11-09T03:41:13.626Z,77.60
2017-11-09T03:43:41.144Z,77.50
2017-11-09T03:46:08.701Z,77.30
2017-11-09T03:48:36.241Z,77.70
2017-11-09T03:51:03.681Z,77.60
2017-11-09T03:53:31.154Z,77.60
2017-11-09T03:55:58.621Z,77.60
2017-11-09T03:58:26.833Z,77.50
2017-11-09T04:00:54.302Z,78.30
2017-11-09T04:03:21.798Z,77.10
2017-11-09T04:05:49.318Z,76.70
2017-11-09T04:08:16.780Z,76.80
2017-11-09T04:10:44.249Z,77.00
2017-11-09T04:13:11.718Z,76.90
2017-11-09T04:15:39.292Z,76.70
2017-11-09T04:18:06.841Z,76.70
2017-11-09T04:20:34.314Z,77.10
2017-11-09T04:23:01.775Z,77.30
2017-11-09T04:25:29.243Z,77.00
2017-11-09T04:27:57.461Z,77.10
2017-11-09T04:30:24.927Z,77.00
2017-11-09T04:32:52.414Z,76.90
2017-11-09T04:35:19.874Z,76.70
2017-11-09T04:37:47.426Z,76.90
2017-11-09T04:40:14.910Z,77.10
2017-11-09T04:42:43.213Z,76.70
2017-11-09T04:45:10.663Z,76.60
2017-11-09T04:47:38.133Z,76.70
2017-11-09T04:50:05.598Z,76.80
2017-11-09T04:52:33.067Z,76.60
2017-11-09T04:55:00.530Z,76.70
2017-11-09T04:57:28.124Z,76.90
2017-11-09T04:59:56.373Z,77.10
2017-11-09T05:02:23.951Z,77.10
2017-11-09T05:04:51.489Z,76.80
2017-11-09T05:07:19.129Z,77.60
2017-11-09T05:09:46.580Z,76.90
2017-11-09T05:12:14.229Z,76.80
2017-11-09T05:14:41.699Z,76.70
2017-11-09T05:17:09.173Z,76.60
2017-11-09T05:19:36.700Z,76.40
2017-11-09T05:22:04.158Z,76.30
2017-11-09T05:24:31.723Z,76.10
2017-11-09T05:26:59.217Z,76.30
2017-11-09T05:29:26.687Z,76.50
2017-11-09T05:31:54.907Z,76.20
2017-11-09T05:34:22.370Z,76.10
2017-11-09T05:36:49.852Z,76.20
2017-11-09T05:39:17.326Z,76.40
2017-11-09T05:41:44.790Z,76.70
2017-11-09T05:44:13.042Z,76.70
2017-11-09T05:46:40.518Z,76.60
2017-11-09T05:49:07.978Z,76.60
2017-11-09T05:51:36.201Z,76.80
2017-11-09T05:54:03.709Z,76.80
2017-11-09T05:56:31.251Z,77.30
2017-11-09T05:58:58.718Z,77.80
2017-11-09T06:01:26.283Z,78.00
2017-11-09T06:03:54.519Z,78.70
2017-11-09T06:06:21.994Z,78.20
2017-11-09T06:08:49.567Z,78.50
2017-11-09T06:11:17.022Z,78.80
2017-11-09T06:13:44.569Z,79.40
2017-11-09T06:16:12.239Z,79.70
2017-11-09T06:18:39.694Z,79.60
2017-11-09T06:21:07.165Z,79.20
2017-11-09T06:23:35.398Z,79.20
2017-11-09T06:26:02.853Z,79.10
2017-11-09T06:28:30.320Z,78.90
2017-11-09T06:30:57.790Z,78.70
2017-11-09T06:33:25.258Z,78.60
2017-11-09T06:35:52.805Z,78.30
2017-11-09T06:38:20.362Z,79.00
2017-11-09T06:40:47.922Z,79.20
2017-11-09T06:43:15.486Z,79.50
2017-11-09T06:45:42.950Z,79.70
2017-11-09T06:48:11.182Z,79.40
2017-11-09T06:50:38.639Z,79.90
2017-11-09T06:53:06.127Z,79.70
2017-11-09T06:55:33.691Z,79.80
2017-11-09T06:58:01.162Z,79.60
2017-11-09T07:00:28.622Z,79.40
2017-11-09T07:02:56.850Z,79.30
2017-11-09T07:05:24.315Z,79.30
2017-11-09T07:07:51.894Z,79.50
2017-11-09T07:10:19.361Z,80.70
2017-11-09T07:12:46.911Z,80.10
2017-11-09T07:15:14.368Z,80.10
2017-11-09T07:17:41.934Z,80.30
2017-11-09T07:20:09.399Z,80.50
2017-11-09T07:22:37.758Z,80.50
2017-11-09T07:25:05.318Z,80.50
2017-11-09T07:27:32.773Z,80.20
2017-11-09T07:30:00.237Z,80.10
2017-11-09T07:32:27.701Z,79.90
2017-11-09T07:34:55.962Z,79.20
2017-11-09T07:37:23.518Z,79.20
2017-11-09T07:39:51.001Z,79.20
2017-11-09T07:42:19.245Z,79.00
2017-11-09T07:44:46.806Z,78.90
2017-11-09T07:47:14.277Z,79.00
2017-11-09T07:49:41.741Z,78.80
2017-11-09T07:52:09.986Z,79.50
2017-11-09T07:54:37.466Z,79.50
2017-11-09T07:57:05.031Z,79.10
2017-11-09T07:59:32.494Z,78.90
2017-11-09T08:02:00.759Z,79.20
2017-11-09T08:04:28.234Z,79.20
2017-11-09T08:06:56.471Z,78.80
2017-11-09T08:09:23.952Z,78.70
2017-11-09T08:11:52.269Z,79.20
2017-11-09T08:14:21.311Z,78.40
2017-11-09T08:16:48.771Z,78.40
2017-11-09T08:19:16.232Z,78.80
2017-11-09T08:21:43.713Z,78.90
2017-11-09T08:24:12.978Z,78.40
2017-11-09T08:26:48.675Z,78.40
2017-11-09T08:29:19.455Z,78.70
2017-11-09T08:31:48.596Z,79.10
2017-11-09T08:34:16.065Z,79.30
2017-11-09T08:36:43.562Z,79.70
2017-11-09T08:39:11.025Z,79.60
2017-11-09T08:41:38.489Z,79.50
2017-11-09T08:44:06.052Z,79.70
2017-11-09T08:46:34.282Z,79.50
2017-11-09T08:49:01.778Z,79.50
2017-11-09T08:51:29.270Z,79.40
2017-11-09T08:53:56.725Z,79.30
2017-11-09T08:56:24.207Z,79.10
2017-11-09T08:58:51.663Z,79.20
2017-11-09T09:01:19.126Z,79.40
2017-11-09T09:03:46.599Z,78.60
2017-11-09T09:06:14.059Z,78.70
2017-11-09T09:08:41.529Z,78.60
2017-11-09T09:11:08.995Z,79.00
2017-11-09T09:13:36.456Z,79.50
2017-11-09T09:16:03.921Z,79.10
2017-11-09T09:18:32.156Z,78.60
2017-11-09T09:21:05.332Z,78.60
2017-11-09T09:23:32.782Z,78.70
2017-11-09T09:26:01.787Z,79.40
2017-11-09T09:28:29.758Z,79.70
2017-11-09T09:30:57.741Z,80.30
2017-11-09T09:33:28.827Z,80.40
2017-11-09T09:39:03.619Z,79.30
2017-11-09T09:41:31.087Z,79.50
2017-11-09T09:43:58.541Z,79.80
2017-11-09T09:46:26.003Z,79.50
2017-11-09T09:48:53.464Z,78.80
2017-11-09T09:51:20.926Z,78.90
2017-11-09T09:53:48.483Z,79.10
2017-11-09T09:56:15.956Z,78.40
2017-11-09T09:58:44.211Z,79.30
2017-11-09T10:01:11.727Z,79.20
2017-11-09T10:03:39.194Z,79.40
2017-11-09T10:06:06.658Z,79.20
2017-11-09T10:08:34.118Z,78.90
2017-11-09T10:11:01.577Z,79.00
2017-11-09T10:13:29.059Z,79.00
2017-11-09T10:15:56.526Z,79.10
2017-11-09T10:18:24.752Z,79.30
2017-11-09T10:20:52.219Z,79.20
2017-11-09T10:23:19.683Z,80.00
2017-11-09T10:25:47.143Z,80.10
2017-11-09T10:28:16.465Z,80.20
2017-11-09T10:30:44.698Z,80.80
2017-11-09T10:33:12.177Z,80.70
2017-11-09T10:35:39.753Z,80.50
2017-11-09T10:38:07.303Z,80.40
2017-11-09T10:40:34.862Z,80.70
2017-11-09T10:43:02.354Z,80.70
2017-11-09T10:45:30.570Z,80.70
2017-11-09T10:47:58.120Z,80.60
2017-11-09T10:50:25.574Z,80.90
2017-11-09T10:52:53.067Z,80.30
2017-11-09T10:55:20.535Z,80.50
2017-11-09T10:57:48.006Z,81.00
2017-11-09T11:00:16.233Z,79.80
2017-11-09T11:02:43.785Z,79.70
2017-11-09T11:05:11.276Z,79.70
2017-11-09T11:07:38.770Z,79.50
2017-11-09T11:10:06.236Z,79.70
2017-11-09T11:12:33.706Z,79.80
2017-11-09T11:15:01.257Z,80.10
2017-11-09T11:17:28.758Z,80.40
2017-11-09T11:19:56.215Z,80.80
2017-11-09T11:22:23.687Z,81.20
2017-11-09T11:24:51.138Z,81.20
2017-11-09T11:27:18.686Z,81.40
2017-11-09T11:29:46.247Z,81.30
2017-11-09T11:32:13.721Z,81.60
2017-11-09T11:34:41.972Z,81.40
2017-11-09T11:37:13.430Z,81.50
2017-11-09T11:39:40.898Z,81.80
2017-11-09T11:42:09.161Z,81.80
2017-11-09T11:44:36.644Z,81.60
2017-11-09T11:47:04.857Z,81.90
2017-11-09T11:49:32.349Z,81.90
2017-11-09T11:51:59.822Z,82.30
2017-11-09T11:54:28.082Z,82.10
2017-11-09T11:56:55.631Z,82.10
2017-11-09T11:59:23.155Z,81.60
2017-11-09T12:01:50.615Z,81.60
2017-11-09T12:04:24.038Z,81.30
2017-11-09T12:06:51.507Z,81.70
2017-11-09T12:09:18.979Z,82.00
2017-11-09T12:12:03.122Z,82.40
2017-11-09T12:14:30.595Z,82.50
2017-11-09T12:16:58.820Z,82.70
2017-11-09T12:19:26.407Z,82.70
2017-11-09T12:21:53.967Z,82.80
2017-11-09T12:24:21.432Z,82.60
2017-11-09T12:26:49.659Z,83.10
2017-11-09T12:29:17.135Z,83.00
2017-11-09T12:31:44.612Z,83.00
2017-11-09T12:34:12.078Z,82.70
2017-11-09T12:36:40.319Z,82.50
2017-11-09T12:39:07.781Z,82.50
2017-11-09T12:41:35.250Z,82.70
2017-11-09T12:44:03.469Z,83.10
2017-11-09T12:46:30.955Z,83.10
2017-11-09T12:48:58.458Z,83.00
2017-11-09T12:51:26.719Z,83.30
2017-11-09T12:53:54.270Z,83.20
2017-11-09T12:56:21.763Z,83.30
2017-11-09T12:58:50.007Z,83.40
2017-11-09T13:01:17.563Z,83.30
2017-11-09T13:03:45.031Z,83.30
2017-11-09T13:06:12.497Z,83.00
2017-11-09T13:08:40.746Z,83.00
2017-11-09T13:11:08.205Z,82.80
2017-11-09T13:13:35.671Z,82.80
2017-11-09T13:16:03.912Z,83.20
2017-11-09T13:18:31.394Z,83.10
2017-11-09T13:20:58.859Z,83.60
2017-11-09T13:23:26.336Z,83.80
2017-11-09T13:25:54.553Z,83.20
2017-11-09T13:28:22.036Z,83.20
2017-11-09T13:30:49.502Z,82.60
2017-11-09T13:33:17.062Z,82.70
2017-11-09T13:35:44.622Z,83.10
2017-11-09T13:38:12.085Z,82.60
2017-11-09T13:40:39.635Z,82.60
2017-11-09T13:43:11.033Z,83.70
2017-11-09T13:45:41.289Z,83.20
2017-11-09T13:48:08.865Z,83.20
2017-11-09T13:50:36.523Z,83.30
2017-11-09T13:53:04.082Z,82.40
2017-11-09T13:55:31.637Z,83.40
2017-11-09T13:57:59.102Z,83.20
2017-11-09T14:00:27.449Z,83.00
2017-11-09T14:02:54.909Z,83.20
2017-11-09T14:05:24.189Z,83.10
2017-11-09T14:07:51.686Z,83.30
2017-11-09T14:10:21.149Z,83.50
2017-11-09T14:12:48.605Z,83.70
2017-11-09T14:15:16.074Z,84.00
2017-11-09T14:17:43.567Z,83.60
2017-11-09T14:20:11.145Z,83.60
2017-11-09T14:22:38.683Z,83.70
2017-11-09T14:25:06.231Z,83.50
2017-11-09T14:27:33.695Z,83.60
2017-11-09T14:30:01.257Z,83.50
2017-11-09T14:32:28.814Z,83.30
2017-11-09T14:34:56.277Z,83.40
2017-11-09T14:37:23.734Z,83.50
2017-11-09T14:39:51.284Z,83.60
2017-11-09T14:42:18.745Z,83.10
2017-11-09T14:44:46.210Z,83.50
2017-11-09T14:47:17.507Z,83.60
2017-11-09T14:49:44.966Z,84.70
2017-11-09T14:52:12.460Z,84.10
2017-11-09T14:54:39.938Z,83.80
2017-11-09T14:57:08.179Z,84.50
2017-11-09T14:59:35.637Z,84.40
2017-11-09T15:02:03.095Z,84.50
2017-11-09T15:04:30.653Z,84.40
2017-11-09T15:06:58.119Z,84.60
2017-11-09T15:09:25.587Z,84.80
2017-11-09T15:11:53.130Z,84.70
2017-11-09T15:14:20.686Z,85.40
2017-11-09T15:16:48.255Z,84.60
2017-11-09T15:19:15.826Z,84.70
2017-11-09T15:21:43.299Z,84.80
2017-11-09T15:24:11.528Z,85.40
2017-11-09T15:26:38.987Z,85.40
2017-11-09T15:29:06.454Z,85.30
2017-11-09T15:31:33.914Z,84.60
2017-11-09T15:34:01.378Z,84.90
2017-11-09T15:36:28.855Z,85.10
2017-11-09T15:38:58.027Z,86.20
2017-11-09T15:41:25.516Z,86.00
2017-11-09T15:43:53.039Z,86.30
2017-11-09T15:46:20.594Z,86.30
2017-11-09T15:48:48.059Z,86.30
2017-11-09T15:51:15.606Z,86.30
2017-11-09T15:53:43.074Z,86.20
2017-11-09T15:56:10.625Z,86.10
2017-11-09T15:58:39.606Z,86.10
2017-11-09T16:01:07.187Z,86.10
2017-11-09T16:03:34.735Z,85.80
2017-11-09T16:06:02.190Z,86.00
2017-11-09T16:08:29.660Z,86.00
2017-11-09T16:10:57.113Z,86.30
2017-11-09T16:13:24.579Z,86.30
2017-11-09T16:15:52.819Z,86.30
2017-11-09T16:18:20.278Z,86.20
2017-11-09T16:20:47.747Z,86.10
2017-11-09T16:23:15.205Z,86.30
2017-11-09T16:25:42.676Z,86.30
2017-11-09T16:28:10.220Z,86.70
2017-11-09T16:30:37.781Z,86.60
2017-11-09T16:33:06.014Z,86.60
2017-11-09T16:35:33.477Z,86.70
2017-11-09T16:38:00.970Z,86.60
2017-11-09T16:40:28.437Z,86.70
2017-11-09T16:42:55.981Z,86.80
2017-11-09T16:45:23.452Z,86.80
2017-11-09T16:47:51.017Z,86.80
2017-11-09T16:50:19.281Z,86.80
2017-11-09T16:52:46.855Z,86.70
2017-11-09T16:55:15.117Z,87.00
2017-11-09T16:57:42.605Z,86.90
2017-11-09T17:00:10.135Z,86.60
2017-11-09T17:02:37.610Z,86.80
2017-11-09T17:05:05.842Z,87.00
2017-11-09T17:07:33.305Z,87.00
2017-11-09T17:10:00.780Z,87.00
2017-11-09T17:12:28.342Z,87.30
2017-11-09T17:15:00.778Z,87.80
2017-11-09T17:17:28.246Z,87.80
2017-11-09T17:19:55.719Z,88.00
2017-11-09T17:22:23.188Z,87.90
2017-11-09T17:24:50.654Z,88.10
2017-11-09T17:27:18.909Z,89.00
2017-11-09T17:29:46.379Z,88.10
2017-11-09T17:32:14.647Z,88.10
2017-11-09T17:34:42.202Z,88.00
2017-11-09T17:37:09.760Z,88.10
2017-11-09T17:39:37.239Z,88.00
2017-11-09T17:42:06.410Z,87.80
2017-11-09T17:44:33.891Z,87.70
2017-11-09T17:47:02.155Z,87.60
2017-11-09T17:49:29.705Z,87.60
2017-11-09T17:51:57.268Z,87.90
2017-11-09T17:54:24.822Z,87.80
2017-11-09T17:56:52.386Z,87.70
2017-11-09T17:59:22.808Z,87.70
2017-11-09T18:01:50.269Z,87.80
2017-11-09T18:04:17.747Z,87.80
2017-11-09T18:06:45.979Z,87.60
2017-11-09T18:09:13.446Z,87.60
2017-11-09T18:11:41.006Z,87.70
2017-11-09T18:14:08.483Z,87.90
2017-11-09T18:16:36.753Z,88.20
2017-11-09T18:19:04.297Z,88.10
2017-11-09T18:21:31.850Z,88.00
2017-11-09T18:23:59.314Z,87.90
2017-11-09T18:26:26.772Z,87.70
2017-11-09T18:28:54.326Z,87.80
2017-11-09T18:31:21.802Z,88.50
2017-11-09T18:33:50.029Z,88.00
2017-11-09T18:36:17.525Z,88.00
2017-11-09T18:38:44.989Z,88.10
2017-11-09T18:41:13.227Z,88.00
2017-11-09T18:43:40.706Z,88.00
2017-11-09T18:46:08.178Z,88.10
2017-11-09T18:48:36.402Z,89.00
2017-11-09T18:51:03.878Z,88.10
2017-11-09T18:53:31.344Z,88.10
2017-11-09T18:55:58.910Z,88.20
2017-11-09T18:58:26.474Z,88.30
2017-11-09T19:00:53.958Z,87.80
2017-11-09T19:03:22.185Z,87.80
2017-11-09T19:05:49.767Z,87.80
2017-11-09T19:08:17.223Z,87.90
2017-11-09T19:10:44.788Z,87.50
2017-11-09T19:13:13.030Z,87.50
2017-11-09T19:15:40.574Z,87.40
2017-11-09T19:18:08.025Z,87.50
2017-11-09T19:20:35.521Z,87.50
2017-11-09T19:23:03.088Z,87.60
2017-11-09T19:25:30.552Z,87.50
2017-11-09T19:27:58.794Z,87.40
2017-11-09T19:30:26.261Z,87.40
2017-11-09T19:32:55.238Z,87.70
2017-11-09T19:35:22.694Z,87.70
2017-11-09T19:37:50.175Z,87.60
2017-11-09T19:40:17.793Z,87.60
2017-11-09T19:42:45.266Z,87.70
2017-11-09T19:45:12.746Z,87.50
2017-11-09T19:47:40.220Z,87.10
2017-11-09T19:50:07.681Z,87.10
2017-11-09T19:52:35.921Z,87.40
2017-11-09T19:55:03.390Z,87.30
2017-11-09T19:57:30.949Z,87.30
2017-11-09T19:59:58.522Z,87.00
2017-11-09T20:02:27.494Z,87.00
2017-11-09T20:04:54.974Z,86.90
2017-11-09T20:07:22.514Z,86.60
2017-11-09T20:09:49.998Z,86.80
2017-11-09T20:12:18.249Z,86.90
2017-11-09T20:14:45.716Z,86.80
2017-11-09T20:17:13.179Z,86.90
2017-11-09T20:19:41.422Z,86.20
2017-11-09T20:22:08.910Z,86.20
2017-11-09T20:24:36.381Z,86.50
2017-11-09T20:27:04.618Z,86.50
2017-11-09T20:29:32.106Z,86.40
2017-11-09T20:32:00.342Z,86.50
2017-11-09T20:34:27.803Z,86.40
2017-11-09T20:36:55.282Z,86.20
2017-11-09T20:39:22.788Z,85.90
2017-11-09T20:41:50.254Z,85.90
2017-11-09T20:44:17.722Z,85.80
2017-11-09T20:46:45.197Z,86.10
2017-11-09T20:49:12.662Z,85.90
2017-11-09T20:51:40.938Z,85.60
2017-11-09T20:54:08.496Z,85.60
2017-11-09T20:56:36.056Z,85.80
2017-11-09T20:59:03.518Z,85.60
2017-11-09T21:01:31.786Z,85.60
2017-11-09T21:03:59.252Z,85.40
2017-11-09T21:06:27.518Z,85.70
2017-11-09T21:08:54.976Z,85.70
2017-11-09T21:11:22.465Z,85.50
2017-11-09T21:13:50.702Z,85.30
2017-11-09T21:16:18.276Z,85.20
2017-11-09T21:18:46.535Z,85.30
2017-11-09T21:21:13.982Z,85.20
2017-11-09T21:23:41.457Z,85.30
2017-11-09T21:26:09.010Z,85.30
2017-11-09T21:28:36.476Z,84.90
2017-11-09T21:31:04.003Z,84.30
2017-11-09T21:33:31.465Z,84.70
2017-11-09T21:35:58.925Z,84.60
2017-11-09T21:38:26.399Z,85.00
2017-11-09T21:40:53.856Z,84.30
2017-11-09T21:43:21.341Z,84.90
2017-11-09T21:45:49.566Z,85.00
2017-11-09T21:48:17.047Z,84.90
2017-11-09T21:50:45.281Z,85.10
2017-11-09T21:53:12.756Z,85.00
2017-11-09T21:55:40.222Z,85.10
2017-11-09T21:58:07.790Z,85.30
2017-11-09T22:00:35.257Z,85.30
2017-11-09T22:03:03.507Z,85.30
2017-11-09T22:05:31.080Z,85.20
2017-11-09T22:07:58.538Z,85.20
2017-11-09T22:10:26.003Z,85.30
2017-11-09T22:12:53.467Z,85.20
2017-11-09T22:15:21.706Z,85.00
2017-11-09T22:17:49.160Z,85.00
2017-11-09T22:20:16.634Z,85.20
2017-11-09T22:22:44.096Z,84.90
2017-11-09T22:25:11.562Z,85.00
2017-11-09T22:27:39.113Z,85.30
2017-11-09T22:30:06.670Z,85.40
2017-11-09T22:32:34.231Z,85.10
2017-11-09T22:35:01.695Z,85.10
2017-11-09T22:37:29.949Z,84.80
2017-11-09T22:39:57.577Z,84.70
2017-11-09T22:42:25.035Z,85.00
2017-11-09T22:44:52.506Z,85.00
2017-11-09T22:47:19.971Z,84.90
2017-11-09T22:49:47.509Z,85.00
2017-11-09T22:52:14.975Z,84.80
2017-11-09T22:54:42.461Z,84.70
2017-11-09T22:57:10.013Z,84.70
2017-11-09T22:59:37.469Z,84.60
2017-11-09T23:02:05.025Z,84.50
2017-11-09T23:04:32.490Z,84.10
2017-11-09T23:06:59.966Z,84.10
2017-11-09T23:09:28.194Z,84.40
2017-11-09T23:11:55.679Z,84.40
2017-11-09T23:14:23.139Z,84.50
2017-11-09T23:16:50.709Z,84.50
2017-11-09T23:19:18.261Z,84.50
2017-11-09T23:21:45.722Z,84.20
2017-11-09T23:24:13.265Z,84.10
2017-11-09T23:26:42.243Z,83.60
2017-11-09T23:29:09.712Z,83.50
2017-11-09T23:31:37.180Z,83.80
2017-11-09T23:34:04.645Z,83.50
2017-11-09T23:36:32.871Z,84.10
2017-11-09T23:39:00.361Z,83.30
2017-11-09T23:41:27.925Z,83.20
2017-11-09T23:43:55.409Z,82.90
2017-11-09T23:46:23.629Z,83.10
2017-11-09T23:48:51.117Z,83.00
2017-11-09T23:51:18.685Z,82.90
2017-11-09T23:53:46.230Z,83.20
2017-11-09T23:56:14.614Z,83.40
2017-11-09T23:58:42.096Z,83.30
